sensor_id;sensor_type;location;lat;lon;timestamp;P1;durP1;ratioP1;P2;durP2;ratioP2
823;SDS011;373;49.342;8.146;2024-02-14T00:00:00;4.70;;;3.20;;
823;SDS011;373;49.342;8.146;2024-02-14T00:02:30;4.32;;;3.17;;
823;SDS011;373;49.342;8.146;2024-02-14T00:04:57;3.80;;;3.35;;
823;SDS011;373;49.342;8.146;2024-02-14T00:07:24;3.53;;;3.22;;
823;SDS011;373;49.342;8.146;2024-02-14T00:09:52;3.80;;;2.97;;
823;SDS011;373;49.342;8.146;2024-02-14T00:12:19;5.38;;;3.47;;
823;SDS011;373;49.342;8.146;2024-02-14T00:14:48;4.30;;;3.25;;
823;SDS011;373;49.342;8.146;2024-02-14T00:17:15;4.32;;;3.28;;
823;SDS011;373;49.342;8.146;2024-02-14T00:19:42;5.80;;;4.13;;
823;SDS011;373;49.342;8.146;2024-02-14T00:22:09;4.65;;;3.10;;
823;SDS011;373;49.342;8.146;2024-02-14T00:24:37;4.05;;;3.28;;
823;SDS011;373;49.342;8.146;2024-02-14T00:27:04;6.95;;;3.30;;
823;SDS011;373;49.342;8.146;2024-02-14T00:29:32;5.18;;;3.22;;
823;SDS011;373;49.342;8.146;2024-02-14T00:32:01;3.80;;;3.35;;
823;SDS011;373;49.342;8.146;2024-02-14T00:34:28;3.85;;;3.47;;
823;SDS011;373;49.342;8.146;2024-02-14T00:36:55;3.05;;;2.70;;
823;SDS011;373;49.342;8.146;2024-02-14T00:39:22;5.68;;;3.70;;
823;SDS011;373;49.342;8.146;2024-02-14T00:41:49;4.82;;;2.75;;
823;SDS011;373;49.342;8.146;2024-02-14T00:44:17;4.30;;;2.78;;
823;SDS011;373;49.342;8.146;2024-02-14T00:46:45;5.03;;;3.88;;
823;SDS011;373;49.342;8.146;2024-02-14T00:49:14;3.70;;;3.30;;
823;SDS011;373;49.342;8.146;2024-02-14T00:51:41;6.35;;;3.83;;
823;SDS011;373;49.342;8.146;2024-02-14T00:54:08;4.40;;;3.45;;
823;SDS011;373;49.342;8.146;2024-02-14T00:56:35;6.68;;;3.85;;
823;SDS011;373;49.342;8.146;2024-02-14T00:59:02;3.35;;;2.80;;
823;SDS011;373;49.342;8.146;2024-02-14T01:01:29;3.60;;;2.90;;
823;SDS011;373;49.342;8.146;2024-02-14T01:03:56;3.85;;;2.63;;
823;SDS011;373;49.342;8.146;2024-02-14T01:06:25;5.78;;;2.88;;
823;SDS011;373;49.342;8.146;2024-02-14T01:08:52;3.83;;;3.22;;
823;SDS011;373;49.342;8.146;2024-02-14T01:11:19;6.30;;;2.80;;
823;SDS011;373;49.342;8.146;2024-02-14T01:13:46;6.38;;;3.45;;
823;SDS011;373;49.342;8.146;2024-02-14T01:16:13;3.78;;;2.70;;
823;SDS011;373;49.342;8.146;2024-02-14T01:18:40;4.13;;;2.70;;
823;SDS011;373;49.342;8.146;2024-02-14T01:21:07;5.28;;;3.42;;
823;SDS011;373;49.342;8.146;2024-02-14T01:23:36;3.13;;;2.75;;
823;SDS011;373;49.342;8.146;2024-02-14T01:26:03;3.13;;;2.78;;
823;SDS011;373;49.342;8.146;2024-02-14T01:28:30;3.88;;;3.10;;
823;SDS011;373;49.342;8.146;2024-02-14T01:30:58;5.10;;;3.10;;
823;SDS011;373;49.342;8.146;2024-02-14T01:33:26;3.58;;;2.85;;
823;SDS011;373;49.342;8.146;2024-02-14T01:35:53;4.00;;;3.15;;
823;SDS011;373;49.342;8.146;2024-02-14T01:38:21;4.18;;;3.20;;
823;SDS011;373;49.342;8.146;2024-02-14T01:40:50;3.88;;;3.20;;
823;SDS011;373;49.342;8.146;2024-02-14T01:43:17;4.03;;;3.25;;
823;SDS011;373;49.342;8.146;2024-02-14T01:45:46;4.45;;;3.17;;
823;SDS011;373;49.342;8.146;2024-02-14T01:48:13;4.43;;;3.08;;
823;SDS011;373;49.342;8.146;2024-02-14T01:50:43;5.03;;;3.17;;
823;SDS011;373;49.342;8.146;2024-02-14T01:53:11;3.20;;;2.88;;
823;SDS011;373;49.342;8.146;2024-02-14T01:55:38;3.35;;;2.80;;
823;SDS011;373;49.342;8.146;2024-02-14T01:58:07;3.90;;;3.20;;
823;SDS011;373;49.342;8.146;2024-02-14T02:00:34;6.88;;;3.53;;
823;SDS011;373;49.342;8.146;2024-02-14T02:03:06;4.00;;;3.10;;
823;SDS011;373;49.342;8.146;2024-02-14T02:05:34;4.60;;;3.33;;
823;SDS011;373;49.342;8.146;2024-02-14T02:08:01;4.50;;;3.13;;
823;SDS011;373;49.342;8.146;2024-02-14T02:10:28;4.90;;;3.50;;
823;SDS011;373;49.342;8.146;2024-02-14T02:12:57;3.47;;;2.63;;
823;SDS011;373;49.342;8.146;2024-02-14T02:15:26;3.92;;;3.22;;
823;SDS011;373;49.342;8.146;2024-02-14T02:17:54;6.00;;;3.65;;
823;SDS011;373;49.342;8.146;2024-02-14T02:20:22;4.35;;;3.35;;
823;SDS011;373;49.342;8.146;2024-02-14T02:22:50;4.43;;;4.03;;
823;SDS011;373;49.342;8.146;2024-02-14T02:25:17;4.35;;;2.90;;
823;SDS011;373;49.342;8.146;2024-02-14T02:27:48;4.53;;;3.30;;
823;SDS011;373;49.342;8.146;2024-02-14T02:30:15;3.50;;;3.20;;
823;SDS011;373;49.342;8.146;2024-02-14T02:32:42;3.40;;;3.10;;
823;SDS011;373;49.342;8.146;2024-02-14T02:35:09;5.32;;;3.80;;
823;SDS011;373;49.342;8.146;2024-02-14T02:37:36;5.47;;;3.60;;
823;SDS011;373;49.342;8.146;2024-02-14T02:40:06;5.88;;;3.33;;
823;SDS011;373;49.342;8.146;2024-02-14T02:42:35;4.40;;;4.00;;
823;SDS011;373;49.342;8.146;2024-02-14T02:45:02;4.53;;;4.13;;
823;SDS011;373;49.342;8.146;2024-02-14T02:47:30;6.22;;;4.07;;
823;SDS011;373;49.342;8.146;2024-02-14T02:49:57;4.43;;;4.03;;
823;SDS011;373;49.342;8.146;2024-02-14T02:52:26;7.00;;;5.18;;
823;SDS011;373;49.342;8.146;2024-02-14T02:54:54;6.03;;;4.30;;
823;SDS011;373;49.342;8.146;2024-02-14T02:57:22;5.18;;;4.32;;
823;SDS011;373;49.342;8.146;2024-02-14T02:59:52;6.10;;;4.50;;
823;SDS011;373;49.342;8.146;2024-02-14T03:02:19;4.55;;;3.80;;
823;SDS011;373;49.342;8.146;2024-02-14T03:04:48;5.55;;;3.70;;
823;SDS011;373;49.342;8.146;2024-02-14T03:07:16;3.47;;;3.17;;
823;SDS011;373;49.342;8.146;2024-02-14T03:09:44;5.13;;;3.88;;
823;SDS011;373;49.342;8.146;2024-02-14T03:12:11;3.63;;;3.33;;
823;SDS011;373;49.342;8.146;2024-02-14T03:14:42;4.22;;;3.00;;
823;SDS011;373;49.342;8.146;2024-02-14T03:17:10;3.72;;;3.10;;
823;SDS011;373;49.342;8.146;2024-02-14T03:19:37;3.70;;;3.20;;
823;SDS011;373;49.342;8.146;2024-02-14T03:22:06;4.05;;;3.00;;
823;SDS011;373;49.342;8.146;2024-02-14T03:24:34;3.75;;;2.85;;
823;SDS011;373;49.342;8.146;2024-02-14T03:27:02;6.65;;;3.08;;
823;SDS011;373;49.342;8.146;2024-02-14T03:29:30;4.65;;;3.40;;
823;SDS011;373;49.342;8.146;2024-02-14T03:31:59;5.30;;;2.83;;
823;SDS011;373;49.342;8.146;2024-02-14T03:34:29;3.45;;;2.67;;
823;SDS011;373;49.342;8.146;2024-02-14T03:36:59;5.28;;;2.80;;
823;SDS011;373;49.342;8.146;2024-02-14T03:39:27;4.05;;;2.53;;
823;SDS011;373;49.342;8.146;2024-02-14T03:41:55;4.63;;;2.88;;
823;SDS011;373;49.342;8.146;2024-02-14T03:44:22;4.85;;;3.00;;
823;SDS011;373;49.342;8.146;2024-02-14T03:46:49;4.38;;;2.40;;
823;SDS011;373;49.342;8.146;2024-02-14T03:49:17;3.00;;;2.55;;
823;SDS011;373;49.342;8.146;2024-02-14T03:51:45;4.15;;;2.72;;
823;SDS011;373;49.342;8.146;2024-02-14T03:54:12;2.65;;;2.40;;
823;SDS011;373;49.342;8.146;2024-02-14T03:56:39;4.72;;;2.50;;
823;SDS011;373;49.342;8.146;2024-02-14T03:59:06;4.32;;;2.65;;
823;SDS011;373;49.342;8.146;2024-02-14T04:01:33;3.55;;;1.75;;
823;SDS011;373;49.342;8.146;2024-02-14T04:04:00;4.32;;;2.60;;
823;SDS011;373;49.342;8.146;2024-02-14T04:06:29;3.92;;;2.17;;
823;SDS011;373;49.342;8.146;2024-02-14T04:08:57;4.07;;;2.47;;
823;SDS011;373;49.342;8.146;2024-02-14T04:11:25;4.05;;;3.28;;
823;SDS011;373;49.342;8.146;2024-02-14T04:13:52;3.60;;;3.22;;
823;SDS011;373;49.342;8.146;2024-02-14T04:16:19;3.60;;;2.63;;
823;SDS011;373;49.342;8.146;2024-02-14T04:18:47;4.60;;;2.47;;
823;SDS011;373;49.342;8.146;2024-02-14T04:21:14;4.88;;;3.08;;
823;SDS011;373;49.342;8.146;2024-02-14T04:23:43;3.00;;;2.35;;
823;SDS011;373;49.342;8.146;2024-02-14T04:26:10;3.00;;;2.70;;
823;SDS011;373;49.342;8.146;2024-02-14T04:28:44;4.75;;;2.67;;
823;SDS011;373;49.342;8.146;2024-02-14T04:31:11;4.63;;;2.88;;
823;SDS011;373;49.342;8.146;2024-02-14T04:33:38;3.35;;;2.17;;
823;SDS011;373;49.342;8.146;2024-02-14T04:36:05;3.33;;;2.53;;
823;SDS011;373;49.342;8.146;2024-02-14T04:38:33;2.38;;;2.00;;
823;SDS011;373;49.342;8.146;2024-02-14T04:41:01;4.80;;;2.67;;
823;SDS011;373;49.342;8.146;2024-02-14T04:43:29;4.88;;;2.38;;
823;SDS011;373;49.342;8.146;2024-02-14T04:45:56;3.15;;;2.00;;
823;SDS011;373;49.342;8.146;2024-02-14T04:48:23;3.15;;;2.15;;
823;SDS011;373;49.342;8.146;2024-02-14T04:50:51;2.17;;;1.75;;
823;SDS011;373;49.342;8.146;2024-02-14T04:53:18;2.30;;;1.40;;
823;SDS011;373;49.342;8.146;2024-02-14T04:55:46;4.35;;;1.48;;
823;SDS011;373;49.342;8.146;2024-02-14T04:58:14;2.78;;;0.80;;
823;SDS011;373;49.342;8.146;2024-02-14T05:00:41;1.77;;;1.27;;
823;SDS011;373;49.342;8.146;2024-02-14T05:03:08;1.95;;;1.23;;
823;SDS011;373;49.342;8.146;2024-02-14T05:05:35;1.65;;;1.00;;
823;SDS011;373;49.342;8.146;2024-02-14T05:08:03;3.65;;;1.15;;
823;SDS011;373;49.342;8.146;2024-02-14T05:10:31;3.80;;;1.30;;
823;SDS011;373;49.342;8.146;2024-02-14T05:12:58;2.17;;;1.27;;
823;SDS011;373;49.342;8.146;2024-02-14T05:15:27;2.03;;;1.30;;
823;SDS011;373;49.342;8.146;2024-02-14T05:17:55;2.15;;;1.17;;
823;SDS011;373;49.342;8.146;2024-02-14T05:20:22;5.15;;;1.40;;
823;SDS011;373;49.342;8.146;2024-02-14T05:22:49;2.00;;;1.20;;
823;SDS011;373;49.342;8.146;2024-02-14T05:25:16;2.10;;;1.17;;
823;SDS011;373;49.342;8.146;2024-02-14T05:27:43;1.65;;;1.42;;
823;SDS011;373;49.342;8.146;2024-02-14T05:30:12;2.60;;;1.30;;
823;SDS011;373;49.342;8.146;2024-02-14T05:32:41;3.10;;;1.60;;
823;SDS011;373;49.342;8.146;2024-02-14T05:35:08;2.13;;;1.02;;
823;SDS011;373;49.342;8.146;2024-02-14T05:37:35;2.63;;;1.80;;
823;SDS011;373;49.342;8.146;2024-02-14T05:40:03;5.50;;;1.67;;
823;SDS011;373;49.342;8.146;2024-02-14T05:42:32;4.97;;;1.65;;
823;SDS011;373;49.342;8.146;2024-02-14T05:45:00;2.33;;;1.42;;
823;SDS011;373;49.342;8.146;2024-02-14T05:47:28;2.20;;;1.10;;
823;SDS011;373;49.342;8.146;2024-02-14T05:49:58;1.20;;;0.80;;
823;SDS011;373;49.342;8.146;2024-02-14T05:52:25;3.60;;;1.52;;
823;SDS011;373;49.342;8.146;2024-02-14T05:54:52;2.47;;;1.38;;
823;SDS011;373;49.342;8.146;2024-02-14T05:57:19;4.07;;;1.60;;
823;SDS011;373;49.342;8.146;2024-02-14T05:59:46;1.45;;;1.35;;
823;SDS011;373;49.342;8.146;2024-02-14T06:02:13;1.77;;;1.20;;
823;SDS011;373;49.342;8.146;2024-02-14T06:04:40;2.03;;;1.27;;
823;SDS011;373;49.342;8.146;2024-02-14T06:07:12;3.28;;;1.40;;
823;SDS011;373;49.342;8.146;2024-02-14T06:09:46;2.63;;;1.27;;
823;SDS011;373;49.342;8.146;2024-02-14T06:12:13;1.38;;;1.10;;
823;SDS011;373;49.342;8.146;2024-02-14T06:14:40;1.65;;;1.20;;
823;SDS011;373;49.342;8.146;2024-02-14T06:17:07;2.35;;;1.48;;
823;SDS011;373;49.342;8.146;2024-02-14T06:19:36;3.13;;;0.90;;
823;SDS011;373;49.342;8.146;2024-02-14T06:22:04;2.65;;;1.02;;
823;SDS011;373;49.342;8.146;2024-02-14T06:24:32;1.48;;;1.02;;
823;SDS011;373;49.342;8.146;2024-02-14T06:27:00;0.88;;;0.80;;
823;SDS011;373;49.342;8.146;2024-02-14T06:29:27;2.60;;;1.17;;
823;SDS011;373;49.342;8.146;2024-02-14T06:31:54;1.33;;;1.10;;
823;SDS011;373;49.342;8.146;2024-02-14T06:34:22;1.85;;;1.02;;
823;SDS011;373;49.342;8.146;2024-02-14T06:36:54;1.70;;;1.13;;
823;SDS011;373;49.342;8.146;2024-02-14T06:39:27;1.20;;;0.90;;
823;SDS011;373;49.342;8.146;2024-02-14T06:42:07;2.33;;;1.27;;
823;SDS011;373;49.342;8.146;2024-02-14T06:44:38;1.70;;;1.08;;
823;SDS011;373;49.342;8.146;2024-02-14T06:47:08;2.47;;;1.33;;
823;SDS011;373;49.342;8.146;2024-02-14T06:49:41;2.28;;;1.20;;
823;SDS011;373;49.342;8.146;2024-02-14T06:52:23;1.63;;;1.30;;
823;SDS011;373;49.342;8.146;2024-02-14T06:54:51;1.75;;;1.00;;
823;SDS011;373;49.342;8.146;2024-02-14T06:57:20;2.33;;;1.20;;
823;SDS011;373;49.342;8.146;2024-02-14T06:59:49;3.28;;;1.23;;
823;SDS011;373;49.342;8.146;2024-02-14T07:02:17;1.60;;;1.27;;
823;SDS011;373;49.342;8.146;2024-02-14T07:04:44;1.10;;;1.00;;
823;SDS011;373;49.342;8.146;2024-02-14T07:07:14;1.50;;;1.20;;
823;SDS011;373;49.342;8.146;2024-02-14T07:09:46;3.40;;;1.40;;
823;SDS011;373;49.342;8.146;2024-02-14T07:12:13;2.45;;;1.65;;
823;SDS011;373;49.342;8.146;2024-02-14T07:14:42;2.00;;;1.15;;
823;SDS011;373;49.342;8.146;2024-02-14T07:17:11;3.72;;;1.52;;
823;SDS011;373;49.342;8.146;2024-02-14T07:19:43;4.50;;;2.15;;
823;SDS011;373;49.342;8.146;2024-02-14T07:22:22;3.25;;;1.27;;
823;SDS011;373;49.342;8.146;2024-02-14T07:24:58;3.33;;;1.95;;
823;SDS011;373;49.342;8.146;2024-02-14T07:27:27;1.55;;;1.40;;
823;SDS011;373;49.342;8.146;2024-02-14T07:29:59;1.58;;;1.27;;
823;SDS011;373;49.342;8.146;2024-02-14T07:32:27;2.13;;;1.30;;
823;SDS011;373;49.342;8.146;2024-02-14T07:34:54;5.13;;;2.15;;
823;SDS011;373;49.342;8.146;2024-02-14T07:37:24;1.92;;;1.73;;
823;SDS011;373;49.342;8.146;2024-02-14T07:39:51;2.70;;;1.80;;
823;SDS011;373;49.342;8.146;2024-02-14T07:42:19;1.65;;;1.48;;
823;SDS011;373;49.342;8.146;2024-02-14T07:44:48;4.13;;;1.95;;
823;SDS011;373;49.342;8.146;2024-02-14T07:47:19;3.58;;;2.05;;
823;SDS011;373;49.342;8.146;2024-02-14T07:49:46;2.22;;;1.63;;
823;SDS011;373;49.342;8.146;2024-02-14T07:52:14;2.42;;;1.13;;
823;SDS011;373;49.342;8.146;2024-02-14T07:54:41;3.35;;;1.70;;
823;SDS011;373;49.342;8.146;2024-02-14T07:57:08;3.88;;;1.85;;
823;SDS011;373;49.342;8.146;2024-02-14T07:59:38;3.15;;;1.85;;
823;SDS011;373;49.342;8.146;2024-02-14T08:02:06;2.45;;;2.22;;
823;SDS011;373;49.342;8.146;2024-02-14T08:04:37;4.80;;;1.92;;
823;SDS011;373;49.342;8.146;2024-02-14T08:07:10;5.63;;;2.03;;
823;SDS011;373;49.342;8.146;2024-02-14T08:09:47;1.75;;;1.65;;
823;SDS011;373;49.342;8.146;2024-02-14T08:12:14;2.30;;;1.80;;
823;SDS011;373;49.342;8.146;2024-02-14T08:14:46;2.85;;;1.85;;
823;SDS011;373;49.342;8.146;2024-02-14T08:17:16;2.33;;;1.40;;
823;SDS011;373;49.342;8.146;2024-02-14T08:19:51;3.08;;;1.50;;
823;SDS011;373;49.342;8.146;2024-02-14T08:22:18;2.42;;;1.50;;
823;SDS011;373;49.342;8.146;2024-02-14T08:24:48;2.47;;;1.80;;
823;SDS011;373;49.342;8.146;2024-02-14T08:27:16;4.03;;;1.85;;
823;SDS011;373;49.342;8.146;2024-02-14T08:29:44;3.08;;;1.55;;
823;SDS011;373;49.342;8.146;2024-02-14T08:32:11;2.72;;;1.52;;
823;SDS011;373;49.342;8.146;2024-02-14T08:34:40;2.40;;;1.40;;
823;SDS011;373;49.342;8.146;2024-02-14T08:37:11;1.88;;;1.15;;
823;SDS011;373;49.342;8.146;2024-02-14T08:39:39;2.17;;;1.40;;
823;SDS011;373;49.342;8.146;2024-02-14T08:42:07;2.67;;;1.10;;
823;SDS011;373;49.342;8.146;2024-02-14T08:44:54;2.78;;;1.20;;
823;SDS011;373;49.342;8.146;2024-02-14T08:47:56;0.93;;;0.82;;
823;SDS011;373;49.342;8.146;2024-02-14T08:50:27;1.33;;;1.13;;
823;SDS011;373;49.342;8.146;2024-02-14T08:53:09;2.45;;;1.48;;
823;SDS011;373;49.342;8.146;2024-02-14T08:55:38;1.88;;;1.30;;
823;SDS011;373;49.342;8.146;2024-02-14T08:58:19;2.17;;;1.10;;
823;SDS011;373;49.342;8.146;2024-02-14T09:00:53;1.58;;;0.80;;
823;SDS011;373;49.342;8.146;2024-02-14T09:03:26;1.95;;;1.73;;
823;SDS011;373;49.342;8.146;2024-02-14T09:05:55;1.58;;;0.98;;
823;SDS011;373;49.342;8.146;2024-02-14T09:08:28;2.20;;;1.00;;
823;SDS011;373;49.342;8.146;2024-02-14T09:10:58;2.25;;;1.23;;
823;SDS011;373;49.342;8.146;2024-02-14T09:13:34;0.70;;;0.70;;
823;SDS011;373;49.342;8.146;2024-02-14T09:16:39;2.28;;;0.88;;
823;SDS011;373;49.342;8.146;2024-02-14T09:19:27;1.23;;;0.90;;
823;SDS011;373;49.342;8.146;2024-02-14T09:21:55;0.80;;;0.80;;
823;SDS011;373;49.342;8.146;2024-02-14T09:28:26;1.70;;;1.20;;
823;SDS011;373;49.342;8.146;2024-02-14T09:30:56;1.38;;;1.02;;
823;SDS011;373;49.342;8.146;2024-02-14T09:33:25;1.58;;;1.45;;
823;SDS011;373;49.342;8.146;2024-02-14T09:35:53;1.73;;;1.33;;
823;SDS011;373;49.342;8.146;2024-02-14T09:38:20;1.42;;;1.33;;
823;SDS011;373;49.342;8.146;2024-02-14T09:41:03;2.75;;;1.67;;
823;SDS011;373;49.342;8.146;2024-02-14T09:43:44;1.75;;;1.15;;
823;SDS011;373;49.342;8.146;2024-02-14T09:46:16;2.67;;;1.33;;
823;SDS011;373;49.342;8.146;2024-02-14T09:48:45;2.78;;;1.75;;
823;SDS011;373;49.342;8.146;2024-02-14T09:51:13;1.92;;;1.50;;
823;SDS011;373;49.342;8.146;2024-02-14T09:53:42;3.08;;;1.67;;
823;SDS011;373;49.342;8.146;2024-02-14T09:56:28;1.88;;;1.35;;
823;SDS011;373;49.342;8.146;2024-02-14T09:58:57;3.22;;;1.38;;
823;SDS011;373;49.342;8.146;2024-02-14T10:02:26;2.38;;;1.23;;
823;SDS011;373;49.342;8.146;2024-02-14T10:04:54;1.55;;;1.20;;
823;SDS011;373;49.342;8.146;2024-02-14T10:10:57;1.67;;;1.13;;
823;SDS011;373;49.342;8.146;2024-02-14T10:13:32;1.58;;;1.27;;
823;SDS011;373;49.342;8.146;2024-02-14T10:16:02;1.40;;;0.93;;
823;SDS011;373;49.342;8.146;2024-02-14T10:18:44;3.67;;;0.77;;
823;SDS011;373;49.342;8.146;2024-02-14T10:21:22;1.38;;;0.98;;
823;SDS011;373;49.342;8.146;2024-02-14T10:23:51;1.38;;;0.90;;
823;SDS011;373;49.342;8.146;2024-02-14T10:27:01;0.95;;;0.85;;
823;SDS011;373;49.342;8.146;2024-02-14T10:29:34;1.50;;;1.40;;
823;SDS011;373;49.342;8.146;2024-02-14T10:35:04;1.08;;;0.88;;
823;SDS011;373;49.342;8.146;2024-02-14T10:37:37;3.17;;;1.40;;
823;SDS011;373;49.342;8.146;2024-02-14T10:40:11;1.15;;;0.90;;
823;SDS011;373;49.342;8.146;2024-02-14T10:43:05;1.92;;;0.95;;
823;SDS011;373;49.342;8.146;2024-02-14T10:55:14;0.80;;;0.80;;
823;SDS011;373;49.342;8.146;2024-02-14T10:57:47;1.15;;;0.90;;
823;SDS011;373;49.342;8.146;2024-02-14T11:00:15;0.85;;;0.85;;
823;SDS011;373;49.342;8.146;2024-02-14T11:02:44;1.25;;;0.98;;
823;SDS011;373;49.342;8.146;2024-02-14T11:05:12;0.95;;;0.80;;
823;SDS011;373;49.342;8.146;2024-02-14T11:07:44;1.85;;;0.73;;
823;SDS011;373;49.342;8.146;2024-02-14T11:18:43;1.10;;;0.80;;
823;SDS011;373;49.342;8.146;2024-02-14T11:21:15;1.27;;;1.00;;
823;SDS011;373;49.342;8.146;2024-02-14T11:23:52;0.75;;;0.73;;
823;SDS011;373;49.342;8.146;2024-02-14T11:26:24;0.73;;;0.60;;
823;SDS011;373;49.342;8.146;2024-02-14T11:28:59;2.17;;;1.25;;
823;SDS011;373;49.342;8.146;2024-02-14T11:31:31;1.92;;;0.85;;
823;SDS011;373;49.342;8.146;2024-02-14T11:34:04;1.73;;;0.63;;
823;SDS011;373;49.342;8.146;2024-02-14T11:36:34;1.40;;;0.88;;
823;SDS011;373;49.342;8.146;2024-02-14T11:39:03;1.08;;;0.68;;
823;SDS011;373;49.342;8.146;2024-02-14T11:41:32;1.23;;;0.82;;
823;SDS011;373;49.342;8.146;2024-02-14T11:44:00;0.70;;;0.60;;
823;SDS011;373;49.342;8.146;2024-02-14T11:46:29;0.85;;;0.70;;
823;SDS011;373;49.342;8.146;2024-02-14T11:48:58;0.50;;;0.50;;
823;SDS011;373;49.342;8.146;2024-02-14T11:51:27;1.20;;;0.55;;
823;SDS011;373;49.342;8.146;2024-02-14T11:53:55;0.68;;;0.57;;
823;SDS011;373;49.342;8.146;2024-02-14T11:56:29;0.70;;;0.52;;
823;SDS011;373;49.342;8.146;2024-02-14T11:58:59;0.75;;;0.68;;
823;SDS011;373;49.342;8.146;2024-02-14T12:01:27;0.50;;;0.40;;
823;SDS011;373;49.342;8.146;2024-02-14T12:03:56;0.43;;;0.35;;
823;SDS011;373;49.342;8.146;2024-02-14T12:06:23;0.50;;;0.30;;
823;SDS011;373;49.342;8.146;2024-02-14T12:08:52;0.60;;;0.45;;
823;SDS011;373;49.342;8.146;2024-02-14T12:11:20;0.68;;;0.60;;
823;SDS011;373;49.342;8.146;2024-02-14T12:13:49;2.17;;;0.63;;
823;SDS011;373;49.342;8.146;2024-02-14T12:16:19;0.73;;;0.50;;
823;SDS011;373;49.342;8.146;2024-02-14T12:18:47;1.08;;;0.40;;
823;SDS011;373;49.342;8.146;2024-02-14T12:21:14;0.55;;;0.55;;
823;SDS011;373;49.342;8.146;2024-02-14T12:23:42;0.75;;;0.73;;
823;SDS011;373;49.342;8.146;2024-02-14T12:26:11;1.30;;;0.70;;
823;SDS011;373;49.342;8.146;2024-02-14T12:28:45;0.70;;;0.43;;
823;SDS011;373;49.342;8.146;2024-02-14T12:31:21;1.15;;;0.68;;
823;SDS011;373;49.342;8.146;2024-02-14T12:33:48;1.40;;;0.60;;
823;SDS011;373;49.342;8.146;2024-02-14T12:36:17;0.70;;;0.60;;
823;SDS011;373;49.342;8.146;2024-02-14T12:38:45;0.80;;;0.63;;
823;SDS011;373;49.342;8.146;2024-02-14T12:41:13;1.13;;;0.60;;
823;SDS011;373;49.342;8.146;2024-02-14T12:43:40;1.40;;;0.95;;
823;SDS011;373;49.342;8.146;2024-02-14T12:46:07;0.75;;;0.50;;
823;SDS011;373;49.342;8.146;2024-02-14T12:48:34;1.20;;;0.70;;
823;SDS011;373;49.342;8.146;2024-02-14T12:51:02;0.85;;;0.60;;
823;SDS011;373;49.342;8.146;2024-02-14T12:53:29;0.52;;;0.50;;
823;SDS011;373;49.342;8.146;2024-02-14T12:55:56;0.73;;;0.52;;
823;SDS011;373;49.342;8.146;2024-02-14T12:58:25;0.80;;;0.52;;
823;SDS011;373;49.342;8.146;2024-02-14T13:00:52;1.70;;;0.65;;
823;SDS011;373;49.342;8.146;2024-02-14T13:03:19;0.60;;;0.47;;
823;SDS011;373;49.342;8.146;2024-02-14T13:05:46;0.50;;;0.50;;
823;SDS011;373;49.342;8.146;2024-02-14T13:08:13;2.10;;;0.60;;
823;SDS011;373;49.342;8.146;2024-02-14T13:10:42;1.33;;;0.55;;
823;SDS011;373;49.342;8.146;2024-02-14T13:13:10;0.95;;;0.38;;
823;SDS011;373;49.342;8.146;2024-02-14T13:15:39;1.08;;;0.60;;
823;SDS011;373;49.342;8.146;2024-02-14T13:18:08;1.98;;;0.52;;
823;SDS011;373;49.342;8.146;2024-02-14T13:20:35;0.73;;;0.73;;
823;SDS011;373;49.342;8.146;2024-02-14T13:23:03;0.85;;;0.75;;
823;SDS011;373;49.342;8.146;2024-02-14T13:25:33;1.10;;;0.57;;
823;SDS011;373;49.342;8.146;2024-02-14T13:28:01;0.85;;;0.70;;
823;SDS011;373;49.342;8.146;2024-02-14T13:30:28;0.55;;;0.55;;
823;SDS011;373;49.342;8.146;2024-02-14T13:32:57;0.30;;;0.30;;
823;SDS011;373;49.342;8.146;2024-02-14T13:35:24;0.47;;;0.47;;
823;SDS011;373;49.342;8.146;2024-02-14T13:37:52;0.40;;;0.32;;
823;SDS011;373;49.342;8.146;2024-02-14T13:40:19;0.73;;;0.60;;
823;SDS011;373;49.342;8.146;2024-02-14T13:42:46;1.85;;;0.60;;
823;SDS011;373;49.342;8.146;2024-02-14T13:45:13;0.68;;;0.68;;
823;SDS011;373;49.342;8.146;2024-02-14T13:47:41;0.32;;;0.32;;
823;SDS011;373;49.342;8.146;2024-02-14T13:50:10;0.20;;;0.20;;
823;SDS011;373;49.342;8.146;2024-02-14T13:52:38;0.30;;;0.30;;
823;SDS011;373;49.342;8.146;2024-02-14T13:55:05;0.40;;;0.35;;
823;SDS011;373;49.342;8.146;2024-02-14T13:57:33;0.50;;;0.40;;
823;SDS011;373;49.342;8.146;2024-02-14T14:00:03;0.40;;;0.40;;
823;SDS011;373;49.342;8.146;2024-02-14T14:02:37;0.65;;;0.32;;
823;SDS011;373;49.342;8.146;2024-02-14T14:05:07;0.95;;;0.32;;
823;SDS011;373;49.342;8.146;2024-02-14T14:07:37;0.40;;;0.10;;
823;SDS011;373;49.342;8.146;2024-02-14T14:10:06;0.80;;;0.30;;
823;SDS011;373;49.342;8.146;2024-02-14T14:12:34;0.20;;;0.20;;
823;SDS011;373;49.342;8.146;2024-02-14T14:15:02;0.40;;;0.30;;
823;SDS011;373;49.342;8.146;2024-02-14T14:17:31;0.47;;;0.30;;
823;SDS011;373;49.342;8.146;2024-02-14T14:19:58;0.40;;;0.40;;
823;SDS011;373;49.342;8.146;2024-02-14T14:22:25;0.40;;;0.40;;
823;SDS011;373;49.342;8.146;2024-02-14T14:24:55;0.20;;;0.20;;
823;SDS011;373;49.342;8.146;2024-02-14T14:27:22;0.43;;;0.38;;
823;SDS011;373;49.342;8.146;2024-02-14T14:29:49;0.43;;;0.30;;
823;SDS011;373;49.342;8.146;2024-02-14T14:32:16;0.25;;;0.25;;
823;SDS011;373;49.342;8.146;2024-02-14T14:34:43;0.30;;;0.30;;
823;SDS011;373;49.342;8.146;2024-02-14T14:37:10;0.63;;;0.50;;
823;SDS011;373;49.342;8.146;2024-02-14T14:39:38;0.40;;;0.40;;
823;SDS011;373;49.342;8.146;2024-02-14T14:42:06;0.40;;;0.40;;
823;SDS011;373;49.342;8.146;2024-02-14T14:44:33;0.43;;;0.43;;
823;SDS011;373;49.342;8.146;2024-02-14T14:47:01;0.40;;;0.30;;
823;SDS011;373;49.342;8.146;2024-02-14T14:49:28;0.38;;;0.30;;
823;SDS011;373;49.342;8.146;2024-02-14T14:51:56;0.45;;;0.45;;
823;SDS011;373;49.342;8.146;2024-02-14T14:54:23;0.50;;;0.50;;
823;SDS011;373;49.342;8.146;2024-02-14T14:56:52;0.50;;;0.40;;
823;SDS011;373;49.342;8.146;2024-02-14T14:59:21;0.77;;;0.60;;
823;SDS011;373;49.342;8.146;2024-02-14T15:01:49;1.20;;;0.93;;
823;SDS011;373;49.342;8.146;2024-02-14T15:04:16;0.65;;;0.63;;
823;SDS011;373;49.342;8.146;2024-02-14T15:06:43;0.50;;;0.50;;
823;SDS011;373;49.342;8.146;2024-02-14T15:09:10;0.55;;;0.55;;
823;SDS011;373;49.342;8.146;2024-02-14T15:11:37;0.50;;;0.50;;
823;SDS011;373;49.342;8.146;2024-02-14T15:14:04;0.80;;;0.57;;
823;SDS011;373;49.342;8.146;2024-02-14T15:16:34;0.57;;;0.57;;
823;SDS011;373;49.342;8.146;2024-02-14T15:19:01;0.47;;;0.47;;
823;SDS011;373;49.342;8.146;2024-02-14T15:21:28;0.55;;;0.55;;
823;SDS011;373;49.342;8.146;2024-02-14T15:23:55;0.55;;;0.50;;
823;SDS011;373;49.342;8.146;2024-02-14T15:26:22;0.60;;;0.60;;
823;SDS011;373;49.342;8.146;2024-02-14T15:28:50;0.40;;;0.40;;
823;SDS011;373;49.342;8.146;2024-02-14T15:31:23;1.08;;;0.60;;
823;SDS011;373;49.342;8.146;2024-02-14T15:34:09;0.40;;;0.32;;
823;SDS011;373;49.342;8.146;2024-02-14T15:36:36;0.57;;;0.50;;
823;SDS011;373;49.342;8.146;2024-02-14T15:39:03;0.40;;;0.40;;
823;SDS011;373;49.342;8.146;2024-02-14T15:41:31;0.60;;;0.60;;
823;SDS011;373;49.342;8.146;2024-02-14T15:43:58;1.02;;;0.52;;
823;SDS011;373;49.342;8.146;2024-02-14T15:46:25;0.73;;;0.50;;
823;SDS011;373;49.342;8.146;2024-02-14T15:48:52;1.27;;;0.60;;
823;SDS011;373;49.342;8.146;2024-02-14T15:51:21;0.60;;;0.60;;
823;SDS011;373;49.342;8.146;2024-02-14T15:53:49;2.55;;;0.60;;
823;SDS011;373;49.342;8.146;2024-02-14T15:56:17;0.82;;;0.50;;
823;SDS011;373;49.342;8.146;2024-02-14T15:58:44;0.40;;;0.40;;
823;SDS011;373;49.342;8.146;2024-02-14T16:01:11;0.50;;;0.50;;
823;SDS011;373;49.342;8.146;2024-02-14T16:03:39;0.90;;;0.90;;
823;SDS011;373;49.342;8.146;2024-02-14T16:06:06;0.50;;;0.50;;
823;SDS011;373;49.342;8.146;2024-02-14T16:08:35;0.60;;;0.57;;
823;SDS011;373;49.342;8.146;2024-02-14T16:11:02;0.80;;;0.80;;
823;SDS011;373;49.342;8.146;2024-02-14T16:13:30;0.57;;;0.57;;
823;SDS011;373;49.342;8.146;2024-02-14T16:15:57;0.57;;;0.57;;
823;SDS011;373;49.342;8.146;2024-02-14T16:18:24;0.60;;;0.60;;
823;SDS011;373;49.342;8.146;2024-02-14T16:20:51;0.70;;;0.70;;
823;SDS011;373;49.342;8.146;2024-02-14T16:23:18;0.52;;;0.52;;
823;SDS011;373;49.342;8.146;2024-02-14T16:25:47;0.77;;;0.77;;